Time;durP1;ratioP1;P1;durP2;ratioP2;P2;SDS_P1;SDS_P2;PMS_P1;PMS_P2;Temp;Humidity;BMP_temperature;BMP_pressure;BME280_temperature;BME280_humidity;BME280_pressure;Samples;Min_cycle;Max_cycle;Signal;HPM_P1;HPM_P2
2021/09/01 00:01:41;;;;;;;14.00;7.88;;;14.30;99.90;;;;;;5062905;28;20021;-42
2021/09/01 00:04:06;;;;;;;19.73;8.38;;;14.30;99.90;;;;;;5065308;28;20115;-42
2021/09/01 00:06:32;;;;;;;17.98;9.00;;;14.20;99.90;;;;;;5065886;28;20020;-46
2021/09/01 00:08:57;;;;;;;16.10;9.20;;;14.20;99.90;;;;;;5070983;28;20032;-46
2021/09/01 00:11:23;;;;;;;17.88;9.00;;;14.20;99.90;;;;;;5053388;28;20024;-46
2021/09/01 00:13:49;;;;;;;18.27;8.55;;;14.20;99.90;;;;;;5068477;28;20283;-45
2021/09/01 00:16:27;;;;;;;26.35;10.13;;;14.20;99.90;;;;;;5056712;28;20029;-46
2021/09/01 00:19:01;;;;;;;21.15;9.52;;;14.10;99.90;;;;;;5049679;28;20025;-42
2021/09/01 00:21:27;;;;;;;17.75;9.85;;;14.10;99.90;;;;;;5052667;28;20083;-42
2021/09/01 00:23:52;;;;;;;21.67;10.05;;;14.10;99.90;;;;;;5062408;28;20108;-42
2021/09/01 00:26:19;;;;;;;18.95;9.27;;;14.10;99.90;;;;;;5061268;28;20025;-43
2021/09/01 00:28:45;;;;;;;19.05;10.18;;;14.00;99.90;;;;;;5056133;28;20449;-42
2021/09/01 00:31:10;;;;;;;21.40;10.80;;;14.00;99.90;;;;;;5067947;28;20103;-42
2021/09/01 00:33:36;;;;;;;22.20;9.95;;;14.00;99.90;;;;;;5054582;28;20036;-41
2021/09/01 00:36:02;;;;;;;21.17;10.20;;;14.00;99.90;;;;;;5069854;28;20479;-42
2021/09/01 00:38:27;;;;;;;23.05;10.95;;;13.90;99.90;;;;;;5064881;28;20461;-42
2021/09/01 00:40:54;;;;;;;23.13;10.27;;;13.90;99.90;;;;;;5062515;28;20032;-42
2021/09/01 00:43:21;;;;;;;25.13;9.77;;;14.00;99.90;;;;;;5070756;28;20020;-42
2021/09/01 00:45:47;;;;;;;21.90;10.43;;;14.00;99.90;;;;;;5055502;28;20392;-42
2021/09/01 00:48:17;;;;;;;21.65;11.68;;;14.00;99.90;;;;;;5054432;28;20260;-42
2021/09/01 00:50:43;;;;;;;25.77;10.88;;;14.00;99.90;;;;;;5055340;28;20498;-43
2021/09/01 00:53:10;;;;;;;29.90;13.45;;;14.10;99.90;;;;;;5069563;28;20071;-46
2021/09/01 00:55:36;;;;;;;39.47;14.45;;;14.10;99.90;;;;;;5063465;28;20029;-46
2021/09/01 00:58:02;;;;;;;30.23;13.20;;;14.10;99.90;;;;;;5061170;28;20029;-45
2021/09/01 01:01:06;;;;;;;34.83;14.25;;;14.10;99.90;;;;;;5065408;28;20173;-47
2021/09/01 01:03:14;;;;;;;29.83;13.77;;;14.10;99.90;;;;;;5030207;28;20632;-46
2021/09/01 01:05:39;;;;;;;31.95;14.63;;;14.10;99.90;;;;;;5045567;28;20036;-46
2021/09/01 01:08:06;;;;;;;33.88;15.43;;;14.20;99.90;;;;;;5029693;28;20025;-46
2021/09/01 01:10:33;;;;;;;33.17;16.15;;;14.10;99.90;;;;;;5042961;28;20190;-46
2021/09/01 01:12:59;;;;;;;39.50;14.32;;;14.20;99.90;;;;;;5061712;28;20410;-46
2021/09/01 01:15:25;;;;;;;29.70;14.55;;;14.20;99.90;;;;;;5065989;28;20175;-46
2021/09/01 01:17:50;;;;;;;27.92;13.88;;;14.20;99.90;;;;;;5060911;28;20103;-46
2021/09/01 01:20:16;;;;;;;37.47;14.82;;;14.20;99.90;;;;;;5062289;28;20116;-46
2021/09/01 01:22:41;;;;;;;33.35;15.43;;;14.20;99.90;;;;;;5046223;28;20031;-46
2021/09/01 01:25:09;;;;;;;40.53;16.00;;;14.20;99.90;;;;;;5048594;28;20399;-46
2021/09/01 01:27:42;;;;;;;48.85;17.75;;;14.20;99.90;;;;;;5044672;28;20434;-46
2021/09/01 01:30:08;;;;;;;32.15;15.90;;;14.20;99.90;;;;;;5036797;28;20022;-46
2021/09/01 01:32:35;;;;;;;41.38;17.52;;;14.20;99.90;;;;;;5069820;28;20111;-47
2021/09/01 01:35:01;;;;;;;31.45;15.35;;;14.20;99.90;;;;;;5049009;28;20043;-46
2021/09/01 01:37:26;;;;;;;36.17;15.10;;;14.20;99.90;;;;;;5063110;28;20029;-47
2021/09/01 01:39:52;;;;;;;41.65;16.42;;;14.20;99.90;;;;;;5051302;28;20017;-46
2021/09/01 01:42:17;;;;;;;38.88;17.60;;;14.20;99.90;;;;;;5062559;28;20035;-46
2021/09/01 01:44:43;;;;;;;35.78;17.63;;;14.20;99.90;;;;;;5057551;28;20032;-47
2021/09/01 01:47:08;;;;;;;38.38;17.98;;;14.20;99.90;;;;;;5060541;28;20035;-46
2021/09/01 01:49:35;;;;;;;37.65;17.38;;;14.20;99.90;;;;;;5061873;28;20021;-46
2021/09/01 01:52:00;;;;;;;41.97;18.13;;;14.20;99.90;;;;;;5059136;28;20083;-46
2021/09/01 01:54:26;;;;;;;39.20;17.30;;;14.20;99.90;;;;;;5069387;28;20460;-46
2021/09/01 01:56:52;;;;;;;40.38;19.02;;;14.20;99.90;;;;;;5061595;28;20024;-46
2021/09/01 01:59:17;;;;;;;40.65;19.13;;;14.20;99.90;;;;;;5062143;28;20048;-46
2021/09/01 02:01:43;;;;;;;47.17;20.45;;;14.20;99.90;;;;;;5069714;28;20471;-46
2021/09/01 02:04:08;;;;;;;40.35;19.77;;;14.20;99.90;;;;;;5051204;28;20386;-45
2021/09/01 02:06:34;;;;;;;35.38;18.42;;;14.20;99.90;;;;;;5060043;28;20059;-46
2021/09/01 02:08:59;;;;;;;41.65;19.08;;;14.20;99.90;;;;;;5063893;28;20021;-46
2021/09/01 02:11:25;;;;;;;34.30;17.63;;;14.20;99.90;;;;;;5051493;28;20040;-46
2021/09/01 02:13:50;;;;;;;41.55;20.55;;;14.20;99.90;;;;;;5065216;28;20036;-46
2021/09/01 02:16:16;;;;;;;37.25;19.92;;;14.20;99.90;;;;;;5051850;28;20078;-46
2021/09/01 02:18:41;;;;;;;32.95;18.80;;;14.20;99.90;;;;;;5065306;28;20367;-46
2021/09/01 02:21:07;;;;;;;35.13;19.23;;;14.20;99.90;;;;;;5068904;28;20024;-46
2021/09/01 02:23:33;;;;;;;44.47;20.52;;;14.30;99.90;;;;;;5069153;28;20028;-46
2021/09/01 02:25:59;;;;;;;39.35;20.30;;;14.20;99.90;;;;;;5066480;28;20659;-46
2021/09/01 02:28:24;;;;;;;40.40;20.45;;;14.20;99.90;;;;;;5050853;28;20021;-46
2021/09/01 02:30:52;;;;;;;44.83;19.92;;;14.20;99.90;;;;;;5065474;28;20156;-46
2021/09/01 02:33:17;;;;;;;42.15;20.25;;;14.20;99.90;;;;;;5062102;28;20500;-47
2021/09/01 02:35:43;;;;;;;49.47;21.02;;;14.20;99.90;;;;;;5061162;28;20044;-44
2021/09/01 02:38:09;;;;;;;44.63;20.50;;;14.20;99.90;;;;;;5061686;28;20112;-42
2021/09/01 02:40:34;;;;;;;44.42;19.98;;;14.20;99.90;;;;;;5052729;28;20201;-46
2021/09/01 02:43:00;;;;;;;41.88;20.40;;;14.20;99.90;;;;;;5067859;28;20028;-46
2021/09/01 02:45:25;;;;;;;37.67;20.17;;;14.20;99.90;;;;;;5057856;28;20040;-46
2021/09/01 02:47:51;;;;;;;37.65;18.70;;;14.20;99.90;;;;;;5057606;28;20021;-46
2021/09/01 02:50:16;;;;;;;41.45;18.83;;;14.30;99.90;;;;;;5060758;28;20190;-46
2021/09/01 02:52:43;;;;;;;37.80;19.65;;;14.30;99.90;;;;;;5060177;28;20100;-47
2021/09/01 02:55:09;;;;;;;32.58;18.23;;;14.30;99.90;;;;;;5067197;28;20028;-43
2021/09/01 02:57:34;;;;;;;43.30;21.90;;;14.20;99.90;;;;;;5050917;28;20562;-43
2021/09/01 03:00:00;;;;;;;48.83;19.98;;;14.20;99.90;;;;;;5066950;28;20129;-43
2021/09/01 03:02:27;;;;;;;45.63;20.75;;;14.30;99.90;;;;;;5068293;28;20505;-42
2021/09/01 03:04:52;;;;;;;43.55;19.67;;;14.30;99.90;;;;;;5049983;28;20020;-43
2021/09/01 03:07:18;;;;;;;36.40;20.25;;;14.20;99.90;;;;;;5060912;28;20537;-46
2021/09/01 03:09:43;;;;;;;39.63;19.30;;;14.20;99.90;;;;;;5060053;28;20388;-43
2021/09/01 03:12:09;;;;;;;40.17;21.77;;;14.20;99.90;;;;;;5059717;28;20017;-43
2021/09/01 03:14:35;;;;;;;44.00;21.02;;;14.20;99.90;;;;;;5068189;28;20028;-43
2021/09/01 03:17:01;;;;;;;31.92;18.75;;;14.20;99.90;;;;;;5049007;28;20490;-43
2021/09/01 03:19:26;;;;;;;34.85;19.80;;;14.10;99.90;;;;;;5062353;28;20039;-42
2021/09/01 03:21:52;;;;;;;39.20;20.08;;;14.10;99.90;;;;;;5062582;28;20020;-43
2021/09/01 03:24:17;;;;;;;35.03;18.58;;;14.10;99.90;;;;;;5060011;28;20073;-42
2021/09/01 03:26:43;;;;;;;36.38;19.90;;;14.10;99.90;;;;;;5061419;28;20044;-42
2021/09/01 03:29:09;;;;;;;39.42;21.23;;;14.10;99.90;;;;;;5059579;28;20021;-43
2021/09/01 03:31:34;;;;;;;32.95;18.35;;;14.10;99.90;;;;;;5066749;28;20024;-43
2021/09/01 03:34:00;;;;;;;42.08;20.15;;;14.10;99.90;;;;;;5048687;28;20052;-42
2021/09/01 03:36:25;;;;;;;36.05;19.65;;;14.10;99.90;;;;;;5061237;28;20024;-42
2021/09/01 03:38:51;;;;;;;47.90;19.55;;;14.10;99.90;;;;;;5062036;28;20017;-43
2021/09/01 03:41:16;;;;;;;37.55;19.38;;;14.00;99.90;;;;;;5060914;28;20399;-42
2021/09/01 03:43:42;;;;;;;38.95;19.83;;;14.00;99.90;;;;;;5053895;28;20075;-42
2021/09/01 03:46:08;;;;;;;34.88;19.95;;;14.00;99.90;;;;;;5047822;28;20554;-43
2021/09/01 03:48:33;;;;;;;36.45;19.33;;;14.10;99.90;;;;;;5047921;28;20095;-43
2021/09/01 03:50:59;;;;;;;42.78;19.40;;;14.10;99.90;;;;;;5047827;28;20059;-49
2021/09/01 03:53:24;;;;;;;33.63;16.95;;;14.10;99.90;;;;;;5062344;28;20479;-42
2021/09/01 03:55:50;;;;;;;37.63;18.48;;;14.20;99.90;;;;;;5062275;28;20509;-42
2021/09/01 03:58:15;;;;;;;36.55;18.42;;;14.10;99.90;;;;;;5060934;28;20020;-43
2021/09/01 04:00:42;;;;;;;37.97;18.33;;;14.20;99.90;;;;;;5062977;28;20518;-43
2021/09/01 04:03:08;;;;;;;42.35;18.27;;;14.20;99.90;;;;;;5060461;28;20016;-42
2021/09/01 04:05:33;;;;;;;43.15;19.73;;;14.20;99.90;;;;;;5071298;28;20036;-46
2021/09/01 04:07:59;;;;;;;33.03;17.30;;;14.20;99.90;;;;;;5070851;28;20032;-46
2021/09/01 04:10:24;;;;;;;29.02;15.70;;;14.10;99.90;;;;;;5052379;28;20095;-45
2021/09/01 04:12:50;;;;;;;33.33;17.15;;;14.20;99.90;;;;;;5053975;28;20037;-46
2021/09/01 04:15:15;;;;;;;28.83;15.75;;;14.10;99.90;;;;;;5050158;28;20044;-46
2021/09/01 04:17:41;;;;;;;32.08;16.33;;;14.20;99.90;;;;;;5062309;28;20478;-49
2021/09/01 04:20:08;;;;;;;35.92;17.23;;;14.20;99.90;;;;;;5071716;28;20020;-46
2021/09/01 04:22:34;;;;;;;35.65;17.35;;;14.20;99.90;;;;;;5071372;28;20509;-46
2021/09/01 04:24:59;;;;;;;29.58;16.08;;;14.30;99.90;;;;;;5069911;28;20028;-45
2021/09/01 04:27:25;;;;;;;38.85;16.75;;;14.20;99.90;;;;;;5063120;28;20024;-45
2021/09/01 04:29:50;;;;;;;33.42;16.38;;;14.20;99.90;;;;;;5057890;28;20029;-46
2021/09/01 04:32:16;;;;;;;28.35;14.57;;;14.30;99.90;;;;;;5070916;28;20056;-46
2021/09/01 04:34:41;;;;;;;28.67;14.68;;;14.30;99.90;;;;;;5057476;28;20100;-46
2021/09/01 04:37:07;;;;;;;28.23;14.40;;;14.30;99.90;;;;;;5061879;28;20058;-46
2021/09/01 04:39:32;;;;;;;24.73;12.88;;;14.30;99.90;;;;;;5064020;28;20274;-46
2021/09/01 04:41:58;;;;;;;27.42;13.80;;;14.30;99.90;;;;;;5062425;28;20164;-46
2021/09/01 04:44:23;;;;;;;34.22;14.88;;;14.30;99.90;;;;;;5070948;28;20028;-46
2021/09/01 04:46:49;;;;;;;27.02;14.10;;;14.20;99.90;;;;;;5057281;28;20025;-47
2021/09/01 04:49:15;;;;;;;26.92;13.32;;;14.30;99.90;;;;;;5051413;28;20026;-46
2021/09/01 04:51:40;;;;;;;31.15;14.18;;;14.30;99.90;;;;;;5046131;28;20385;-46
2021/09/01 04:54:06;;;;;;;27.83;15.20;;;14.30;99.90;;;;;;5053694;28;20033;-46
2021/09/01 04:56:31;;;;;;;25.92;13.65;;;14.30;99.90;;;;;;5050081;28;20029;-46
2021/09/01 04:58:56;;;;;;;28.92;14.35;;;14.20;99.90;;;;;;5055385;28;20051;-46
2021/09/01 05:01:22;;;;;;;29.63;14.57;;;14.20;99.90;;;;;;5043741;28;20098;-47
2021/09/01 05:03:47;;;;;;;23.20;12.73;;;14.20;99.90;;;;;;5047039;28;20017;-46
2021/09/01 05:06:13;;;;;;;36.95;14.57;;;14.20;99.90;;;;;;5049018;28;20076;-46
2021/09/01 05:08:38;;;;;;;32.55;14.60;;;14.30;99.90;;;;;;5038557;28;20021;-46
2021/09/01 05:11:04;;;;;;;23.45;11.70;;;14.30;99.90;;;;;;5056932;28;20426;-46
2021/09/01 05:13:29;;;;;;;32.65;14.23;;;14.20;99.90;;;;;;5050062;28;20033;-46
2021/09/01 05:15:55;;;;;;;30.00;14.25;;;14.30;99.90;;;;;;5053317;28;20020;-46
2021/09/01 05:18:20;;;;;;;30.00;14.23;;;14.30;99.90;;;;;;5062471;28;20051;-46
2021/09/01 05:20:47;;;;;;;36.33;15.27;;;14.30;99.90;;;;;;5051639;28;20110;-46
2021/09/01 05:23:16;;;;;;;30.48;13.23;;;14.30;99.90;;;;;;5055146;28;20389;-45
2021/09/01 05:25:54;;;;;;;28.02;14.70;;;14.30;99.90;;;;;;5055114;28;20017;-46
2021/09/01 05:28:25;;;;;;;30.67;13.52;;;14.30;99.90;;;;;;5049880;28;20549;-46
2021/09/01 05:30:51;;;;;;;27.58;13.27;;;14.30;99.90;;;;;;5053769;28;20105;-46
2021/09/01 05:33:20;;;;;;;27.42;13.07;;;14.30;99.90;;;;;;5043970;28;20020;-47
2021/09/01 05:35:49;;;;;;;27.48;12.38;;;14.30;99.90;;;;;;5053711;28;20107;-46
2021/09/01 05:38:18;;;;;;;26.10;13.15;;;14.30;99.90;;;;;;5064562;28;20024;-45
2021/09/01 05:40:48;;;;;;;30.33;13.35;;;14.20;99.90;;;;;;5054884;28;20028;-46
2021/09/01 05:43:19;;;;;;;25.42;13.30;;;14.20;99.90;;;;;;5069831;28;20016;-46
2021/09/01 05:45:46;;;;;;;24.50;14.25;;;14.30;99.90;;;;;;5062843;28;20091;-46
2021/09/01 05:48:12;;;;;;;24.83;12.13;;;14.30;99.90;;;;;;5050726;28;20375;-46
2021/09/01 05:50:41;;;;;;;27.30;12.20;;;14.30;99.90;;;;;;5048141;28;20032;-46
2021/09/01 05:53:07;;;;;;;31.05;13.80;;;14.30;99.90;;;;;;5047692;28;20124;-46
2021/09/01 05:55:35;;;;;;;26.48;13.10;;;14.40;99.90;;;;;;5047372;28;20323;-46
2021/09/01 05:58:03;;;;;;;22.42;11.52;;;14.40;99.90;;;;;;5046101;28;20032;-47
2021/09/01 06:00:35;;;;;;;28.90;12.52;;;14.40;99.90;;;;;;5048447;28;20156;-46
2021/09/01 06:03:12;;;;;;;28.02;12.18;;;14.40;99.90;;;;;;5058960;28;20032;-46
2021/09/01 06:05:38;;;;;;;23.85;11.63;;;14.40;99.90;;;;;;5068650;28;20025;-45
2021/09/01 06:08:08;;;;;;;26.33;12.50;;;14.40;99.90;;;;;;5053587;28;20164;-47
2021/09/01 06:10:35;;;;;;;21.38;12.05;;;14.50;99.90;;;;;;5060355;28;20029;-45
2021/09/01 06:13:06;;;;;;;24.88;11.35;;;14.50;99.90;;;;;;5067004;28;20035;-47
2021/09/01 06:15:33;;;;;;;22.40;11.55;;;14.50;99.90;;;;;;5051924;28;20021;-46
2021/09/01 06:17:59;;;;;;;20.27;10.43;;;14.50;99.90;;;;;;5066580;28;20103;-46
2021/09/01 06:20:26;;;;;;;22.25;10.63;;;14.50;99.90;;;;;;5051535;28;20083;-46
2021/09/01 06:22:52;;;;;;;20.92;10.82;;;14.50;99.90;;;;;;5066272;28;20025;-47
2021/09/01 06:25:18;;;;;;;26.80;10.88;;;14.60;99.90;;;;;;5048117;28;20021;-47
2021/09/01 06:27:44;;;;;;;18.27;10.07;;;14.60;99.90;;;;;;5040035;28;20415;-46
2021/09/01 06:30:10;;;;;;;22.42;11.07;;;14.60;99.90;;;;;;5039025;28;20029;-46
2021/09/01 06:32:35;;;;;;;20.15;10.02;;;14.60;99.90;;;;;;5038609;28;20026;-46
2021/09/01 06:35:01;;;;;;;20.02;10.40;;;14.70;99.90;;;;;;5038450;28;20038;-47
2021/09/01 06:37:26;;;;;;;22.38;9.73;;;14.80;99.90;;;;;;5034081;28;20029;-46
2021/09/01 06:39:53;;;;;;;19.35;9.68;;;14.70;99.90;;;;;;5040867;28;20033;-46
2021/09/01 06:42:19;;;;;;;23.55;10.23;;;14.80;99.90;;;;;;5049050;28;20009;-47
2021/09/01 06:44:45;;;;;;;27.92;11.38;;;14.80;99.90;;;;;;5038054;28;20013;-46
2021/09/01 06:47:11;;;;;;;26.98;10.65;;;14.90;99.90;;;;;;5048486;28;20036;-48
2021/09/01 06:49:36;;;;;;;19.25;9.45;;;14.90;99.90;;;;;;5040305;28;20039;-49
2021/09/01 06:52:02;;;;;;;16.38;8.85;;;14.80;99.90;;;;;;5050401;28;20139;-46
2021/09/01 06:54:28;;;;;;;19.10;9.50;;;14.90;99.90;;;;;;5064172;28;20119;-48
2021/09/01 06:56:53;;;;;;;23.20;9.07;;;15.00;99.90;;;;;;5052680;28;20124;-49
2021/09/01 06:59:19;;;;;;;17.77;9.68;;;15.10;99.90;;;;;;5060632;28;20021;-49
2021/09/01 07:01:44;;;;;;;19.42;10.02;;;15.10;99.90;;;;;;5049695;28;20079;-47
2021/09/01 07:04:10;;;;;;;26.30;10.45;;;15.10;99.90;;;;;;5046533;28;20028;-47
2021/09/01 07:06:35;;;;;;;18.80;9.50;;;15.10;99.90;;;;;;5042977;28;20410;-46
2021/09/01 07:09:01;;;;;;;26.55;10.55;;;15.20;99.90;;;;;;5054473;28;20100;-49
2021/09/01 07:11:26;;;;;;;14.57;9.05;;;15.20;99.90;;;;;;5049688;28;20031;-48
2021/09/01 07:13:52;;;;;;;20.50;8.45;;;15.30;99.90;;;;;;5061231;28;20109;-53
2021/09/01 07:16:17;;;;;;;30.25;13.05;;;15.30;99.90;;;;;;5047166;28;20037;-47
2021/09/01 07:18:43;;;;;;;24.70;9.75;;;15.40;99.90;;;;;;5054410;28;20075;-47
2021/09/01 07:21:08;;;;;;;20.48;9.32;;;15.50;99.90;;;;;;5049929;28;20020;-47
2021/09/01 07:23:34;;;;;;;23.60;8.93;;;15.50;99.90;;;;;;5061093;28;20031;-47
2021/09/01 07:25:59;;;;;;;18.83;8.80;;;15.60;99.90;;;;;;5068313;28;20052;-47
2021/09/01 07:28:25;;;;;;;20.08;9.38;;;15.70;99.90;;;;;;5055865;28;20021;-50
2021/09/01 07:30:51;;;;;;;22.42;8.80;;;15.80;99.90;;;;;;5061288;28;20100;-47
2021/09/01 07:33:17;;;;;;;18.58;9.20;;;15.70;99.90;;;;;;5041294;28;20029;-47
2021/09/01 07:35:42;;;;;;;18.95;9.38;;;15.70;99.90;;;;;;5038538;28;20026;-49
2021/09/01 07:38:08;;;;;;;22.38;9.30;;;15.70;99.90;;;;;;5040949;28;20022;-49
2021/09/01 07:40:33;;;;;;;16.17;8.57;;;15.80;99.90;;;;;;5045992;28;20028;-47
2021/09/01 07:42:59;;;;;;;23.88;9.23;;;15.90;99.90;;;;;;5046191;28;20033;-47
2021/09/01 07:45:24;;;;;;;21.00;9.55;;;15.90;99.90;;;;;;5047054;28;20065;-48
2021/09/01 07:47:53;;;;;;;14.40;8.63;;;16.10;99.90;;;;;;5048795;28;20091;-50
2021/09/01 07:50:21;;;;;;;17.95;8.95;;;16.00;99.90;;;;;;5043069;28;20036;-49
2021/09/01 07:52:47;;;;;;;22.15;9.43;;;16.00;99.90;;;;;;5061296;28;20422;-48
2021/09/01 07:55:13;;;;;;;14.50;8.05;;;16.10;99.90;;;;;;5055053;28;20127;-47
2021/09/01 07:57:39;;;;;;;15.82;8.80;;;16.10;99.90;;;;;;5062570;28;20530;-50
2021/09/01 08:00:10;;;;;;;21.58;9.35;;;16.30;99.90;;;;;;5070159;28;20344;-47
2021/09/01 08:02:36;;;;;;;24.23;8.93;;;16.40;99.90;;;;;;5051145;28;20478;-50
2021/09/01 08:05:03;;;;;;;20.38;8.75;;;16.60;99.90;;;;;;5040917;28;20056;-47
2021/09/01 08:07:28;;;;;;;23.50;9.52;;;16.70;99.90;;;;;;5040285;28;20068;-47
2021/09/01 08:09:54;;;;;;;18.38;8.20;;;16.70;99.90;;;;;;5033123;28;20057;-49
2021/09/01 08:12:20;;;;;;;19.70;8.00;;;16.60;99.90;;;;;;5052177;28;20103;-47
2021/09/01 08:14:45;;;;;;;19.52;8.52;;;16.80;99.90;;;;;;5068460;28;20051;-47
2021/09/01 08:17:13;;;;;;;18.15;8.15;;;16.90;99.90;;;;;;5060722;28;20056;-47
2021/09/01 08:19:39;;;;;;;18.10;7.95;;;16.90;99.90;;;;;;5068200;28;20154;-47
2021/09/01 08:22:04;;;;;;;21.95;8.93;;;16.90;99.90;;;;;;5038161;28;20476;-48
2021/09/01 08:24:30;;;;;;;16.63;8.48;;;16.70;99.90;;;;;;5064393;28;20055;-48
2021/09/01 08:26:55;;;;;;;17.02;9.05;;;16.70;99.90;;;;;;5058564;28;20033;-49
2021/09/01 08:29:21;;;;;;;15.65;8.38;;;16.70;99.90;;;;;;5044337;28;20099;-47
2021/09/01 08:31:46;;;;;;;16.40;8.35;;;16.70;99.90;;;;;;5042537;28;20977;-49
2021/09/01 08:34:12;;;;;;;14.40;7.82;;;16.70;99.90;;;;;;5042226;28;20017;-49
2021/09/01 08:36:37;;;;;;;14.18;7.68;;;16.70;99.90;;;;;;5042748;28;20116;-49
2021/09/01 08:39:03;;;;;;;15.65;8.52;;;16.80;99.90;;;;;;5042588;28;20024;-47
2021/09/01 08:41:30;;;;;;;19.30;8.85;;;16.80;99.90;;;;;;5044113;28;20028;-47
2021/09/01 08:43:56;;;;;;;19.13;9.65;;;16.70;99.90;;;;;;5040996;28;20361;-47
2021/09/01 08:46:22;;;;;;;17.00;8.75;;;16.60;99.90;;;;;;5047259;28;20042;-48
2021/09/01 08:49:08;;;;;;;20.50;10.23;;;16.70;99.90;;;;;;5039859;28;20535;-47
2021/09/01 08:51:34;;;;;;;19.05;9.77;;;16.50;99.90;;;;;;5019138;28;20033;-47
2021/09/01 08:53:59;;;;;;;24.98;10.70;;;16.60;99.90;;;;;;5021056;28;20036;-50
2021/09/01 08:56:26;;;;;;;14.32;9.25;;;16.50;99.90;;;;;;5037181;28;20106;-47
2021/09/01 08:58:52;;;;;;;20.17;10.10;;;16.70;99.90;;;;;;5046396;28;20069;-49
2021/09/01 09:01:46;;;;;;;23.85;9.68;;;16.80;99.90;;;;;;5043748;28;20564;-47
2021/09/01 09:04:14;;;;;;;17.77;9.65;;;16.90;99.90;;;;;;5042731;28;20052;-49
2021/09/01 09:06:57;;;;;;;16.40;9.32;;;16.90;99.90;;;;;;5036234;28;20621;-47
2021/09/01 09:09:25;;;;;;;25.42;11.43;;;17.00;99.90;;;;;;5041811;28;20028;-46
2021/09/01 09:11:52;;;;;;;14.45;8.65;;;17.00;99.90;;;;;;5039604;28;20053;-49
2021/09/01 09:14:30;;;;;;;24.95;11.48;;;17.10;99.90;;;;;;5045539;28;20103;-46
2021/09/01 09:17:18;;;;;;;17.25;8.95;;;17.20;99.90;;;;;;5051650;28;20021;-46
2021/09/01 09:20:08;;;;;;;19.30;9.15;;;17.30;99.90;;;;;;5039654;28;20018;-46
2021/09/01 09:22:38;;;;;;;22.52;9.73;;;17.40;99.90;;;;;;5041062;28;20096;-49
2021/09/01 09:25:09;;;;;;;17.23;10.13;;;17.40;99.90;;;;;;5042780;28;20028;-48
2021/09/01 09:27:41;;;;;;;17.40;9.23;;;17.50;99.90;;;;;;5046696;28;20029;-47
2021/09/01 09:30:27;;;;;;;27.52;10.35;;;17.50;99.90;;;;;;5042714;28;20024;-46
2021/09/01 09:33:02;;;;;;;15.95;8.85;;;17.60;99.90;;;;;;5036571;28;20108;-50
2021/09/01 09:35:59;;;;;;;25.15;9.98;;;17.70;99.90;;;;;;5052895;28;20032;-49
2021/09/01 09:38:43;;;;;;;21.63;9.77;;;17.90;99.90;;;;;;5052240;28;20017;-46
2021/09/01 09:41:22;;;;;;;17.85;9.13;;;18.10;99.90;;;;;;5050249;28;20045;-46
2021/09/01 09:43:49;;;;;;;20.42;9.82;;;18.40;99.90;;;;;;5043938;28;20028;-47
2021/09/01 09:46:15;;;;;;;18.70;9.15;;;18.50;99.90;;;;;;5062117;28;20016;-47
2021/09/01 09:48:46;;;;;;;17.52;9.02;;;18.70;99.90;;;;;;5063003;28;20437;-49
2021/09/01 09:51:16;;;;;;;19.63;8.82;;;18.80;99.90;;;;;;5050867;28;20066;-48
2021/09/01 09:53:50;;;;;;;15.70;7.78;;;18.70;99.90;;;;;;5038056;28;20021;-47
2021/09/01 09:56:17;;;;;;;16.02;9.10;;;19.00;99.90;;;;;;5044860;28;20024;-46
2021/09/01 09:58:49;;;;;;;16.20;8.35;;;19.00;99.90;;;;;;5039340;28;20029;-49
2021/09/01 10:01:18;;;;;;;20.67;9.05;;;19.10;99.90;;;;;;5044234;28;20366;-48
2021/09/01 10:03:45;;;;;;;14.80;8.23;;;19.50;99.90;;;;;;5040159;28;20095;-50
2021/09/01 10:06:17;;;;;;;20.50;7.15;;;20.00;99.90;;;;;;5038811;28;20017;-47
2021/09/01 10:08:44;;;;;;;14.93;7.85;;;20.30;99.90;;;;;;5046141;28;20105;-47
2021/09/01 10:11:12;;;;;;;13.98;7.90;;;20.60;99.90;;;;;;5042608;28;20024;-48
2021/09/01 10:13:40;;;;;;;15.88;7.75;;;20.50;99.90;;;;;;5046254;28;20029;-49
2021/09/01 10:16:21;;;;;;;16.52;7.53;;;20.60;99.90;;;;;;5037440;28;20029;-50
2021/09/01 10:18:47;;;;;;;;;;;20.80;99.90;;;;;;5047170;28;20068;-50
2021/09/01 10:21:13;;;;;;;17.00;7.28;;;22.20;99.90;;;;;;5043347;28;20278;-46
2021/09/01 10:23:44;;;;;;;13.43;6.22;;;23.20;99.90;;;;;;5035615;28;20026;-47
2021/09/01 10:26:38;;;;;;;;;;;23.30;99.90;;;;;;5040120;28;20024;-48
2021/09/01 10:29:04;;;;;;;19.58;7.18;;;23.10;99.90;;;;;;5036282;28;19916;-49
2021/09/01 10:31:32;;;;;;;15.15;6.93;;;22.60;99.90;;;;;;5049406;28;20024;-48
2021/09/01 10:34:21;;;;;;;19.02;7.63;;;22.10;99.90;;;;;;5041405;28;20036;-48
2021/09/01 10:36:49;;;;;;;18.80;7.07;;;22.60;99.90;;;;;;5040532;28;20029;-47
2021/09/01 10:39:30;;;;;;;16.35;6.82;;;23.50;99.80;;;;;;5060222;28;20036;-46
2021/09/01 10:41:56;;;;;;;15.48;6.93;;;23.80;98.40;;;;;;5063956;28;20048;-47
2021/09/01 10:44:44;;;;;;;15.52;5.55;;;25.00;96.30;;;;;;5063414;28;20087;-46
2021/09/01 10:47:10;;;;;;;10.85;6.13;;;25.20;95.80;;;;;;5054936;28;20024;-48
2021/09/01 10:49:53;;;;;;;10.88;5.70;;;25.10;96.00;;;;;;5061508;28;20436;-49
2021/09/01 10:52:19;;;;;;;10.20;5.22;;;25.70;94.60;;;;;;5062395;28;20432;-47
2021/09/01 10:54:46;;;;;;;13.32;6.32;;;26.70;93.30;;;;;;5061279;28;20036;-47
2021/09/01 10:57:22;;;;;;;11.57;6.03;;;27.50;90.10;;;;;;5065671;28;20016;-49
2021/09/01 10:59:48;;;;;;;16.92;5.93;;;27.70;86.10;;;;;;5061234;28;20020;-48
2021/09/01 11:02:37;;;;;;;9.75;5.18;;;28.70;83.90;;;;;;5068396;28;20028;-47
2021/09/01 11:05:08;;;;;;;13.17;5.40;;;29.10;80.50;;;;;;5051622;28;20037;-47
2021/09/01 11:07:33;;;;;;;9.65;4.72;;;29.40;74.90;;;;;;5037629;28;20056;-46
2021/09/01 11:10:02;;;;;;;13.07;6.00;;;28.90;77.40;;;;;;5044571;28;20037;-47
2021/09/01 11:12:30;;;;;;;15.57;5.88;;;29.10;72.90;;;;;;5045161;28;20033;-47
2021/09/01 11:14:56;;;;;;;10.48;4.97;;;29.80;74.50;;;;;;5042261;28;20048;-47
2021/09/01 11:17:23;;;;;;;11.65;5.47;;;29.50;71.90;;;;;;5043734;28;20017;-47
2021/09/01 11:19:53;;;;;;;10.82;5.57;;;29.90;71.80;;;;;;5042061;28;20112;-48
2021/09/01 11:22:24;;;;;;;10.52;6.05;;;29.50;72.30;;;;;;5054133;28;20070;-46
2021/09/01 11:24:52;;;;;;;14.60;5.72;;;29.10;71.90;;;;;;5070899;28;20052;-49
2021/09/01 11:27:22;;;;;;;12.50;6.28;;;28.60;71.40;;;;;;5054660;28;20028;-49
2021/09/01 11:29:49;;;;;;;11.02;5.25;;;27.90;74.20;;;;;;5064884;28;20362;-47
2021/09/01 11:32:19;;;;;;;12.50;5.55;;;28.30;74.00;;;;;;5058842;28;20025;-47
2021/09/01 11:34:47;;;;;;;11.13;5.50;;;29.00;73.60;;;;;;5064908;28;20017;-48
2021/09/01 11:37:14;;;;;;;10.80;5.07;;;29.30;72.80;;;;;;5064403;28;20028;-49
2021/09/01 11:39:42;;;;;;;13.55;5.93;;;29.60;70.70;;;;;;5064279;28;20063;-49
2021/09/01 11:42:08;;;;;;;9.25;4.82;;;29.30;69.50;;;;;;5060315;28;20020;-47
2021/09/01 11:44:33;;;;;;;10.10;5.20;;;29.10;71.20;;;;;;5064570;28;20142;-49
2021/09/01 11:46:59;;;;;;;11.20;5.22;;;29.40;72.30;;;;;;5070541;28;20033;-50
2021/09/01 11:49:24;;;;;;;13.23;6.05;;;29.90;70.50;;;;;;5064706;28;20437;-47
2021/09/01 11:51:50;;;;;;;13.75;8.23;;;29.50;70.80;;;;;;5072985;28;20572;-47
2021/09/01 11:54:17;;;;;;;13.88;5.70;;;29.60;69.60;;;;;;5061274;28;20422;-47
2021/09/01 11:56:43;;;;;;;10.30;5.50;;;29.50;70.30;;;;;;5057029;28;20032;-47
2021/09/01 11:59:11;;;;;;;12.68;5.22;;;29.90;68.70;;;;;;5035907;28;20031;-47
2021/09/01 12:01:58;;;;;;;10.27;5.22;;;30.20;67.80;;;;;;5048877;28;20025;-47
2021/09/01 12:04:25;;;;;;;12.77;6.18;;;30.00;66.30;;;;;;5040307;28;20044;-46
2021/09/01 12:06:52;;;;;;;12.35;5.90;;;29.70;67.30;;;;;;5057515;28;20550;-46
2021/09/01 12:09:20;;;;;;;15.65;5.93;;;29.90;67.30;;;;;;5069947;28;20055;-50
2021/09/01 12:11:57;;;;;;;12.38;5.85;;;30.20;67.10;;;;;;5053691;28;20021;-49
2021/09/01 12:14:25;;;;;;;10.35;5.47;;;29.80;68.80;;;;;;5053494;28;20016;-47
2021/09/01 12:16:52;;;;;;;12.00;6.00;;;29.70;68.00;;;;;;5061868;28;20027;-49
2021/09/01 12:19:20;;;;;;;14.18;6.20;;;29.00;70.90;;;;;;5068226;28;20058;-47
2021/09/01 12:21:53;;;;;;;10.63;6.18;;;28.40;72.70;;;;;;5062442;28;20016;-48
2021/09/01 12:24:26;;;;;;;13.63;6.07;;;28.10;72.10;;;;;;5059594;28;20025;-47
2021/09/01 12:26:56;;;;;;;9.10;5.82;;;27.90;72.90;;;;;;5030567;28;20028;-48
2021/09/01 12:29:28;;;;;;;16.88;6.30;;;27.50;72.10;;;;;;5057336;28;20025;-47
2021/09/01 12:31:56;;;;;;;16.30;6.72;;;27.10;73.90;;;;;;5058356;28;20029;-47
2021/09/01 12:34:34;;;;;;;39.85;29.63;;;26.80;74.10;;;;;;5070642;28;20502;-47
2021/09/01 12:37:11;;;;;;;73.70;51.17;;;26.90;76.80;;;;;;5050636;28;20021;-47